Terminal Aerodrome Forecast
Issued by NWS

Home | Current Version | Previous Version | Text Only | Print | Product List | Glossary Off
Versions: 1 2 3 4 5 6 7 8 9 10 11 12 13 14 15 16 17 18 19 20

000
FTUS43 KMPX 221139
TAFRWF
TAF
KRWF 221139Z 2212/2312 18006KT P6SM SKC
     FM221400 18011KT P6SM SKC
     FM221800 17019G27KT P6SM SCT200
     FM230100 16012KT P6SM BKN100
     FM231000 16010KT P6SM VCTS BKN060CB=

USA.gov is the U.S. government's official web portal to all federal, state and local government web resources and services.